Terminal Aerodrome Forecast
Issued by NWS Blacksburg, VA

Current Version | Previous Version | Graphics & Text | Print | Product List | Glossary On
Versions: 1 2 3 4 5 6 7 8 9 10 11 12 13 14 15 16 17 18 19 20 21 22
000
FTUS41 KRNK 150520
TAFBLF
TAF
KBLF 150520Z 1506/1606 VRB03KT P6SM SCT100
     FM150800 15005KT P6SM BKN080
     FM151800 19006KT P6SM SCT050
     FM160100 21006KT P6SM OVC090=

USA.gov is the U.S. government's official web portal to all federal, state and local government web resources and services.